Time;durP1;ratioP1;P1;durP2;ratioP2;P2;SDS_P1;SDS_P2;PMS_P1;PMS_P2;Temp;Humidity;BMP_temperature;BMP_pressure;BME280_temperature;BME280_humidity;BME280_pressure;Samples;Min_cycle;Max_cycle;Signal;HPM_P1;HPM_P2
2022/05/21 00:00:19;;;;;;;16.98;10.98;;;23.60;65.20;;;;;;4877273;29;20442;-76
2022/05/21 00:02:44;;;;;;;16.83;10.55;;;23.60;65.00;;;;;;4875980;29;20036;-76
2022/05/21 00:05:10;;;;;;;16.73;10.07;;;23.70;65.10;;;;;;4877340;29;20024;-76
2022/05/21 00:07:36;;;;;;;15.98;10.75;;;23.70;65.10;;;;;;4877325;29;20486;-76
2022/05/21 00:10:02;;;;;;;15.20;10.05;;;23.70;65.10;;;;;;4877209;29;20081;-76
2022/05/21 00:12:28;;;;;;;16.00;9.90;;;23.70;65.10;;;;;;4877321;29;20097;-77
2022/05/21 00:14:55;;;;;;;15.57;9.88;;;23.70;65.00;;;;;;4876210;29;20033;-76
2022/05/21 00:17:21;;;;;;;15.40;9.93;;;23.70;65.10;;;;;;4876261;29;20033;-77
2022/05/21 00:19:47;;;;;;;18.25;9.35;;;23.60;65.10;;;;;;4876189;29;20033;-77
2022/05/21 00:22:12;;;;;;;15.60;10.27;;;23.70;65.10;;;;;;4877083;29;20036;-76
2022/05/21 00:24:38;;;;;;;14.88;9.85;;;23.70;65.20;;;;;;4875913;29;20393;-77
2022/05/21 00:27:05;;;;;;;14.70;9.75;;;23.60;65.10;;;;;;4876064;29;20036;-77
2022/05/21 00:29:31;;;;;;;14.82;9.93;;;23.60;65.00;;;;;;4876840;29;20052;-77
2022/05/21 00:31:57;;;;;;;14.43;9.45;;;23.60;65.00;;;;;;4875759;29;20033;-78
2022/05/21 00:34:22;;;;;;;16.85;10.20;;;23.60;64.90;;;;;;4877202;29;20395;-78
2022/05/21 00:36:48;;;;;;;15.98;10.38;;;23.60;64.90;;;;;;4880174;29;20047;-78
2022/05/21 00:39:14;;;;;;;14.77;9.75;;;23.60;64.90;;;;;;4878705;29;20178;-78
2022/05/21 00:41:40;;;;;;;16.05;9.55;;;23.60;64.70;;;;;;4878881;29;20039;-78
2022/05/21 00:44:08;;;;;;;16.17;9.25;;;23.60;64.90;;;;;;4880108;29;20394;-77
2022/05/21 00:46:39;;;;;;;14.35;9.32;;;23.70;65.00;;;;;;4874415;29;20036;-77
2022/05/21 00:49:16;;;;;;;14.85;9.45;;;23.60;65.00;;;;;;4877805;29;20109;-78
2022/05/21 00:51:55;;;;;;;13.88;9.27;;;23.60;64.70;;;;;;4863426;29;20112;-78
2022/05/21 00:54:26;;;;;;;13.27;8.93;;;23.60;64.80;;;;;;4880132;29;20376;-77
2022/05/21 00:56:58;;;;;;;14.27;9.55;;;23.60;64.90;;;;;;4880126;29;20083;-77
2022/05/21 01:02:11;;;;;;;14.90;9.55;;;23.60;65.00;;;;;;4879612;29;20060;-78
2022/05/21 01:04:38;;;;;;;14.43;8.35;;;23.60;65.00;;;;;;4879924;29;20040;-78
2022/05/21 01:07:06;;;;;;;15.73;9.02;;;23.60;65.00;;;;;;4878689;29;20029;-78
2022/05/21 01:09:33;;;;;;;13.57;8.88;;;23.70;65.00;;;;;;4878356;29;20025;-78
2022/05/21 01:12:02;;;;;;;12.82;8.70;;;23.60;65.00;;;;;;4879627;29;20482;-77
2022/05/21 01:14:29;;;;;;;13.90;8.18;;;23.70;65.00;;;;;;4879608;29;20084;-77
2022/05/21 01:16:55;;;;;;;12.48;8.10;;;23.60;64.90;;;;;;4878829;29;20036;-77
2022/05/21 01:19:20;;;;;;;13.25;8.77;;;23.70;65.00;;;;;;4879172;29;20029;-77
2022/05/21 01:21:47;;;;;;;14.38;8.65;;;23.60;65.00;;;;;;4877928;29;20437;-77
2022/05/21 01:24:14;;;;;;;13.68;8.48;;;23.60;64.90;;;;;;4877943;29;20566;-77
2022/05/21 01:26:40;;;;;;;17.50;8.43;;;23.70;65.00;;;;;;4879378;29;20116;-77
2022/05/21 01:29:16;;;;;;;14.13;8.40;;;23.60;64.90;;;;;;4878067;29;20643;-77
2022/05/21 01:31:48;;;;;;;13.63;8.68;;;23.60;65.00;;;;;;4879375;29;20029;-78
2022/05/21 01:34:14;;;;;;;12.18;8.25;;;23.60;64.70;;;;;;4878190;29;20037;-78
2022/05/21 01:36:39;;;;;;;12.55;8.48;;;23.60;64.80;;;;;;4879282;29;20029;-78
2022/05/21 01:39:05;;;;;;;12.95;8.30;;;23.60;64.70;;;;;;4879041;29;20088;-77
2022/05/21 01:41:31;;;;;;;13.25;7.95;;;23.60;64.60;;;;;;4879227;29;20116;-78
2022/05/21 01:46:41;;;;;;;13.40;8.43;;;23.70;64.60;;;;;;4878736;29;20059;-78
2022/05/21 01:49:06;;;;;;;12.10;7.70;;;23.60;64.70;;;;;;4878899;29;20447;-77
2022/05/21 01:51:32;;;;;;;11.73;7.55;;;23.60;64.70;;;;;;4878889;29;20033;-77
2022/05/21 01:53:58;;;;;;;12.85;7.93;;;23.60;64.30;;;;;;4878985;29;20116;-78
2022/05/21 01:56:23;;;;;;;10.27;7.03;;;23.60;64.70;;;;;;4879075;29;20068;-78
2022/05/21 01:58:49;;;;;;;12.65;8.18;;;23.60;64.70;;;;;;4878606;29;20033;-78
2022/05/21 02:01:15;;;;;;;11.65;7.07;;;23.60;64.60;;;;;;4878076;29;20482;-78
2022/05/21 02:03:41;;;;;;;13.38;8.13;;;23.70;64.60;;;;;;4879031;29;20112;-77
2022/05/21 02:06:07;;;;;;;14.85;8.40;;;23.60;64.50;;;;;;4878701;29;20112;-78
2022/05/21 02:08:33;;;;;;;11.93;7.53;;;23.60;64.60;;;;;;4877382;29;20025;-77
2022/05/21 02:10:59;;;;;;;10.98;7.18;;;23.60;64.60;;;;;;4878678;29;20025;-77
2022/05/21 02:13:28;;;;;;;11.48;7.70;;;23.60;64.40;;;;;;4878923;29;20029;-77
2022/05/21 02:15:54;;;;;;;12.20;8.32;;;23.60;64.50;;;;;;4877343;29;20062;-78
2022/05/21 02:18:20;;;;;;;10.52;7.22;;;23.60;64.40;;;;;;4877112;29;20635;-77
2022/05/21 02:20:50;;;;;;;12.77;7.15;;;23.60;64.30;;;;;;4878438;29;20111;-78
2022/05/21 02:23:17;;;;;;;12.57;7.45;;;23.60;64.40;;;;;;4878663;29;20033;-78
2022/05/21 02:25:43;;;;;;;14.55;7.90;;;23.70;64.20;;;;;;4877289;29;20069;-78
2022/05/21 02:28:09;;;;;;;13.15;7.15;;;23.60;64.30;;;;;;4877392;29;20124;-78
2022/05/21 02:30:36;;;;;;;10.52;6.55;;;23.60;64.10;;;;;;4878281;29;20025;-78
2022/05/21 02:33:02;;;;;;;10.45;6.70;;;23.60;64.30;;;;;;4861890;29;20135;-78
2022/05/21 02:35:28;;;;;;;11.75;7.53;;;23.60;64.30;;;;;;4878110;29;20032;-78
2022/05/21 02:40:38;;;;;;;10.88;6.88;;;23.60;64.00;;;;;;4878136;29;20518;-78
2022/05/21 02:43:04;;;;;;;11.07;6.72;;;23.60;64.20;;;;;;4861549;29;20037;-78
2022/05/21 02:45:29;;;;;;;10.38;6.25;;;23.60;64.20;;;;;;4878164;29;20390;-78
2022/05/21 02:47:57;;;;;;;11.70;6.45;;;23.60;64.30;;;;;;4876841;29;20033;-78
2022/05/21 02:50:26;;;;;;;10.35;6.30;;;23.60;64.10;;;;;;4861670;29;20093;-78
2022/05/21 02:52:51;;;;;;;10.95;6.70;;;23.60;63.70;;;;;;4877739;29;20037;-78
2022/05/21 02:55:18;;;;;;;10.02;6.50;;;23.60;64.10;;;;;;4877966;29;20450;-78
2022/05/21 02:57:45;;;;;;;12.98;6.68;;;23.70;64.20;;;;;;4877180;29;20064;-78
2022/05/21 03:00:19;;;;;;;10.35;6.10;;;23.60;64.20;;;;;;4877479;29;20489;-78
2022/05/21 03:02:45;;;;;;;10.55;6.38;;;23.60;64.20;;;;;;4876450;29;20068;-78
2022/05/21 03:05:12;;;;;;;9.77;6.70;;;23.60;64.10;;;;;;4876906;29;20117;-77
2022/05/21 03:07:46;;;;;;;10.35;6.50;;;23.60;64.20;;;;;;4861112;29;20033;-78
2022/05/21 03:10:23;;;;;;;10.85;6.80;;;23.70;64.20;;;;;;4877758;29;20029;-78
2022/05/21 03:12:56;;;;;;;11.95;6.97;;;23.60;64.10;;;;;;4876520;29;20039;-78
2022/05/21 03:15:27;;;;;;;14.15;6.97;;;23.60;64.10;;;;;;4877626;29;20120;-74
2022/05/21 03:17:53;;;;;;;9.18;4.22;;;23.60;64.40;;;;;;4877557;29;20473;-75
2022/05/21 03:20:20;;;;;;;10.23;4.85;;;23.50;63.00;;;;;;4877669;29;20120;-75
2022/05/21 03:22:46;;;;;;;8.73;3.60;;;23.40;61.80;;;;;;4877519;29;20037;-75
2022/05/21 03:25:12;;;;;;;12.23;5.30;;;23.40;60.40;;;;;;4877639;29;20102;-74
2022/05/21 03:27:39;;;;;;;8.80;4.30;;;23.40;61.80;;;;;;4877167;29;20041;-74
2022/05/21 03:30:08;;;;;;;6.78;4.15;;;23.30;61.20;;;;;;4877841;29;20108;-74
2022/05/21 03:32:33;;;;;;;9.50;4.57;;;23.40;61.40;;;;;;4877395;29;20112;-74
2022/05/21 03:34:59;;;;;;;9.63;4.45;;;23.40;60.70;;;;;;4877518;29;20639;-75
2022/05/21 03:37:25;;;;;;;8.98;4.00;;;23.30;59.90;;;;;;4877190;29;20033;-75
2022/05/21 03:39:50;;;;;;;6.68;3.55;;;23.40;60.20;;;;;;4877450;29;20037;-75
2022/05/21 03:42:17;;;;;;;6.93;3.72;;;23.40;60.40;;;;;;4877082;29;20100;-75
2022/05/21 03:44:43;;;;;;;6.22;3.50;;;23.40;60.70;;;;;;4876351;29;20100;-75
2022/05/21 03:47:10;;;;;;;7.90;3.70;;;23.30;60.20;;;;;;4877295;29;20034;-75
2022/05/21 03:49:36;;;;;;;6.25;3.58;;;23.40;59.60;;;;;;4877312;29;20035;-75
2022/05/21 03:52:01;;;;;;;6.90;3.08;;;23.30;59.80;;;;;;4877391;29;20491;-74
2022/05/21 03:54:27;;;;;;;4.68;2.78;;;23.40;59.40;;;;;;4875915;29;20371;-74
2022/05/21 03:56:54;;;;;;;9.27;3.35;;;23.40;59.20;;;;;;4860677;29;20085;-74
2022/05/21 03:59:20;;;;;;;9.98;3.63;;;23.40;59.00;;;;;;4875914;29;20566;-75
2022/05/21 04:01:46;;;;;;;5.20;2.83;;;23.40;58.90;;;;;;4876992;29;20116;-74
2022/05/21 04:04:12;;;;;;;6.55;2.90;;;23.40;59.40;;;;;;4877463;29;20379;-75
2022/05/21 04:06:37;;;;;;;6.88;3.15;;;23.40;59.30;;;;;;4877225;29;20398;-74
2022/05/21 04:09:04;;;;;;;6.80;3.20;;;23.40;59.50;;;;;;4877026;29;20104;-75
2022/05/21 04:11:29;;;;;;;8.00;2.95;;;23.30;58.50;;;;;;4879646;29;20036;-75
2022/05/21 04:13:55;;;;;;;4.72;2.65;;;23.40;58.70;;;;;;4879725;29;20447;-74
2022/05/21 04:16:21;;;;;;;4.05;2.72;;;23.30;58.70;;;;;;4879747;29;20025;-74
2022/05/21 04:18:47;;;;;;;4.32;2.25;;;23.30;58.40;;;;;;4876206;29;20048;-74
2022/05/21 04:21:13;;;;;;;4.45;2.22;;;23.30;58.70;;;;;;4879249;29;20085;-74
2022/05/21 04:23:39;;;;;;;5.10;2.40;;;23.30;58.30;;;;;;4880218;29;20033;-74
2022/05/21 04:26:05;;;;;;;6.03;2.33;;;23.30;57.60;;;;;;4879494;29;20443;-75
2022/05/21 04:28:30;;;;;;;5.25;2.33;;;23.30;57.80;;;;;;4878902;29;20029;-75
2022/05/21 04:30:56;;;;;;;9.55;2.58;;;23.30;58.20;;;;;;4880630;29;20025;-74
2022/05/21 04:33:22;;;;;;;6.03;2.50;;;23.30;57.80;;;;;;4880067;29;20115;-74
2022/05/21 04:38:33;;;;;;;6.10;2.67;;;23.30;57.40;;;;;;4879819;29;20037;-74
2022/05/21 04:40:59;;;;;;;4.35;2.33;;;23.30;57.30;;;;;;4879257;29;20036;-75
2022/05/21 04:43:24;;;;;;;5.65;2.33;;;23.30;57.20;;;;;;4879888;29;20036;-75
2022/05/21 04:45:50;;;;;;;5.45;2.42;;;23.30;57.30;;;;;;4880367;29;20052;-74
2022/05/21 04:48:16;;;;;;;5.45;2.92;;;23.30;57.20;;;;;;4878137;29;20032;-75
2022/05/21 04:50:42;;;;;;;5.43;2.70;;;23.30;56.60;;;;;;4879253;29;20497;-74
2022/05/21 04:53:08;;;;;;;7.05;3.17;;;23.30;56.60;;;;;;4878757;29;20037;-74
2022/05/21 04:55:34;;;;;;;4.45;2.00;;;23.30;56.60;;;;;;4879418;29;20478;-74
2022/05/21 04:57:59;;;;;;;5.32;2.50;;;23.30;57.10;;;;;;4878590;29;20032;-74
2022/05/21 05:00:25;;;;;;;5.25;2.35;;;23.30;57.20;;;;;;4879984;29;20035;-74
2022/05/21 05:02:51;;;;;;;6.93;2.67;;;23.30;56.80;;;;;;4878465;29;20060;-74
2022/05/21 05:05:17;;;;;;;4.22;2.20;;;23.30;56.30;;;;;;4878600;29;20059;-74
2022/05/21 05:07:43;;;;;;;4.70;2.25;;;23.30;56.00;;;;;;4878404;29;20037;-75
2022/05/21 05:10:09;;;;;;;6.80;2.35;;;23.30;56.40;;;;;;4878716;29;20033;-74
2022/05/21 05:12:35;;;;;;;10.07;2.10;;;23.30;56.50;;;;;;4878414;29;20033;-74
2022/05/21 05:15:01;;;;;;;4.47;2.50;;;23.30;56.10;;;;;;4878378;29;20055;-74
2022/05/21 05:17:30;;;;;;;6.20;2.55;;;23.20;56.20;;;;;;4879524;29;20037;-74
2022/05/21 05:19:56;;;;;;;3.67;1.90;;;23.20;56.10;;;;;;4878346;29;20033;-73
2022/05/21 05:22:22;;;;;;;5.28;2.20;;;23.30;56.00;;;;;;4877517;29;20044;-74
2022/05/21 05:24:48;;;;;;;4.82;2.13;;;23.30;56.00;;;;;;4862986;29;20121;-74
2022/05/21 05:27:16;;;;;;;4.55;1.95;;;23.30;56.00;;;;;;4879521;29;20037;-73
2022/05/21 05:29:42;;;;;;;5.28;2.35;;;23.30;56.50;;;;;;4878142;29;20482;-73
2022/05/21 05:32:08;;;;;;;2.60;1.70;;;23.20;55.80;;;;;;4877967;29;20094;-73
2022/05/21 05:34:35;;;;;;;5.82;1.80;;;23.20;55.90;;;;;;4878163;29;20454;-73
2022/05/21 05:37:01;;;;;;;4.93;1.88;;;23.30;55.40;;;;;;4878366;29;20117;-73
2022/05/21 05:39:29;;;;;;;4.03;1.85;;;23.30;55.10;;;;;;4877794;29;20115;-73
2022/05/21 05:41:55;;;;;;;5.78;2.03;;;23.20;55.30;;;;;;4877949;29;20486;-74
2022/05/21 05:44:20;;;;;;;7.38;2.00;;;23.20;55.30;;;;;;4878170;29;20089;-74
2022/05/21 05:46:47;;;;;;;4.15;1.80;;;23.30;55.20;;;;;;4878158;29;20021;-74
2022/05/21 05:49:12;;;;;;;5.63;2.00;;;23.30;54.80;;;;;;4877630;29;20494;-74
2022/05/21 05:51:38;;;;;;;6.72;2.30;;;23.20;55.10;;;;;;4879071;29;20068;-74
2022/05/21 05:54:04;;;;;;;4.43;1.88;;;23.30;54.90;;;;;;4878966;29;20116;-74
2022/05/21 05:56:30;;;;;;;5.25;1.90;;;23.20;54.40;;;;;;4879186;29;20060;-75
2022/05/21 06:01:43;;;;;;;3.00;1.70;;;23.20;54.80;;;;;;4878741;29;20033;-75
2022/05/21 06:04:09;;;;;;;6.60;2.10;;;23.20;54.60;;;;;;4878685;29;20502;-74
2022/05/21 06:06:35;;;;;;;3.72;1.63;;;23.20;54.80;;;;;;4878739;29;20063;-75
2022/05/21 06:09:01;;;;;;;3.58;1.63;;;23.20;54.60;;;;;;4878595;29;20057;-75
2022/05/21 06:11:26;;;;;;;3.70;1.77;;;23.20;54.70;;;;;;4878733;29;20212;-74
2022/05/21 06:13:52;;;;;;;5.15;1.70;;;23.20;54.20;;;;;;4878699;29;20486;-74
2022/05/21 06:16:18;;;;;;;6.93;1.77;;;23.20;54.30;;;;;;4878741;29;20033;-75
2022/05/21 06:18:44;;;;;;;6.57;1.80;;;23.20;54.20;;;;;;4878294;29;20076;-75
2022/05/21 06:21:09;;;;;;;6.72;1.90;;;23.20;54.30;;;;;;4878322;29;20037;-75
2022/05/21 06:23:35;;;;;;;4.70;1.98;;;23.20;54.30;;;;;;4878312;29;20084;-75
2022/05/21 06:26:02;;;;;;;6.72;2.00;;;23.20;54.30;;;;;;4861989;29;20032;-75
2022/05/21 06:28:28;;;;;;;4.78;1.80;;;23.20;54.20;;;;;;4861644;29;20041;-75
2022/05/21 06:30:55;;;;;;;6.05;1.55;;;23.20;54.10;;;;;;4877980;29;20025;-75
2022/05/21 06:33:27;;;;;;;4.32;1.60;;;23.20;53.80;;;;;;4877293;29;20037;-75
2022/05/21 06:36:06;;;;;;;5.00;1.98;;;23.20;53.90;;;;;;4877035;29;20032;-75
2022/05/21 06:38:34;;;;;;;5.70;1.80;;;23.20;54.30;;;;;;4878013;29;20044;-75
2022/05/21 06:41:00;;;;;;;4.65;1.80;;;23.20;53.70;;;;;;4876987;29;20122;-75
2022/05/21 06:43:26;;;;;;;6.47;1.80;;;23.20;53.90;;;;;;4876904;29;20044;-75
2022/05/21 06:45:51;;;;;;;8.40;1.90;;;23.20;53.50;;;;;;4878052;29;20096;-75
2022/05/21 06:48:17;;;;;;;3.28;1.90;;;23.20;53.50;;;;;;4861458;29;20039;-74
2022/05/21 06:50:43;;;;;;;5.65;1.92;;;23.20;53.70;;;;;;4878183;29;20124;-74
2022/05/21 06:53:08;;;;;;;10.50;1.77;;;23.20;53.20;;;;;;4877118;29;20045;-74
2022/05/21 06:55:34;;;;;;;5.07;1.70;;;23.20;53.50;;;;;;4877061;29;20554;-74
2022/05/21 06:58:00;;;;;;;3.92;1.73;;;23.20;53.40;;;;;;4877641;29;20044;-73
2022/05/21 07:00:26;;;;;;;5.90;1.70;;;23.20;53.20;;;;;;4877938;29;20036;-74
2022/05/21 07:02:53;;;;;;;4.00;1.63;;;23.20;53.50;;;;;;4877815;29;20514;-74
2022/05/21 07:08:13;;;;;;;5.47;2.00;;;23.20;53.30;;;;;;4876433;29;20117;-74
2022/05/21 07:10:39;;;;;;;8.00;1.98;;;23.20;53.50;;;;;;4876696;29;20032;-74
2022/05/21 07:13:05;;;;;;;4.45;1.55;;;23.20;52.90;;;;;;4877857;29;20033;-75
2022/05/21 07:15:30;;;;;;;6.30;2.03;;;23.20;52.80;;;;;;4877745;29;20043;-74
2022/05/21 07:18:01;;;;;;;7.93;1.90;;;23.20;52.80;;;;;;4876365;29;20175;-75
2022/05/21 07:20:27;;;;;;;4.15;1.70;;;23.20;52.90;;;;;;4877747;29;20037;-75
2022/05/21 07:22:53;;;;;;;3.78;1.73;;;23.20;53.00;;;;;;4876464;29;20037;-75
2022/05/21 07:25:23;;;;;;;4.53;1.67;;;23.20;53.80;;;;;;4877646;29;20029;-75
2022/05/21 07:27:49;;;;;;;4.45;1.30;;;23.20;53.00;;;;;;4876109;29;20053;-75
2022/05/21 07:30:15;;;;;;;2.67;1.55;;;23.20;52.50;;;;;;4877519;29;20089;-75
2022/05/21 07:32:41;;;;;;;5.57;1.80;;;23.20;53.60;;;;;;4877549;29;20025;-75
2022/05/21 07:35:10;;;;;;;4.20;1.45;;;23.20;52.70;;;;;;4876286;29;20071;-75
2022/05/21 07:37:36;;;;;;;5.45;1.80;;;23.20;52.80;;;;;;4876138;29;20452;-75
2022/05/21 07:40:03;;;;;;;4.10;1.50;;;23.20;52.40;;;;;;4877701;29;20028;-75
2022/05/21 07:42:30;;;;;;;5.45;1.60;;;23.20;52.60;;;;;;4877376;29;20029;-75
2022/05/21 07:44:57;;;;;;;2.90;1.50;;;23.20;52.20;;;;;;4877861;29;20367;-75
2022/05/21 07:47:24;;;;;;;3.58;1.50;;;23.20;52.30;;;;;;4881056;29;20029;-75
2022/05/21 07:49:56;;;;;;;3.40;1.67;;;23.20;52.80;;;;;;4878114;29;20025;-75
2022/05/21 07:52:23;;;;;;;4.60;1.48;;;23.20;53.00;;;;;;4879968;29;20127;-75
2022/05/21 07:54:49;;;;;;;4.57;1.30;;;23.20;53.00;;;;;;4881162;29;20498;-75
2022/05/21 07:57:14;;;;;;;4.53;1.75;;;23.30;53.30;;;;;;4880804;29;20112;-75
2022/05/21 07:59:40;;;;;;;4.55;1.60;;;23.30;53.20;;;;;;4881153;29;20033;-75
2022/05/21 08:02:11;;;;;;;6.25;1.50;;;23.20;52.40;;;;;;4863855;29;20402;-75
2022/05/21 08:04:39;;;;;;;3.83;1.80;;;23.30;53.30;;;;;;4880983;29;20033;-74
2022/05/21 08:07:05;;;;;;;3.10;1.30;;;23.30;52.50;;;;;;4880895;29;20057;-75
2022/05/21 08:09:31;;;;;;;3.25;1.40;;;23.20;53.10;;;;;;4880765;29;20033;-75
2022/05/21 08:11:56;;;;;;;4.68;1.42;;;23.30;53.00;;;;;;4880740;29;20104;-75
2022/05/21 08:14:23;;;;;;;2.70;1.58;;;23.20;52.60;;;;;;4880806;29;20043;-75
2022/05/21 08:16:49;;;;;;;4.85;1.70;;;23.20;53.10;;;;;;4880927;29;20520;-75
2022/05/21 08:19:16;;;;;;;4.28;1.30;;;23.30;53.10;;;;;;4880067;29;20064;-75
2022/05/21 08:21:42;;;;;;;4.00;1.65;;;23.30;52.60;;;;;;4863089;29;20112;-75
2022/05/21 08:27:00;;;;;;;2.60;1.30;;;23.20;53.40;;;;;;4862889;29;20029;-75
2022/05/21 08:29:28;;;;;;;4.60;1.67;;;23.20;53.00;;;;;;4879263;29;20146;-75
2022/05/21 08:31:54;;;;;;;4.10;1.35;;;23.20;52.80;;;;;;4879814;29;20044;-75
2022/05/21 08:34:21;;;;;;;3.65;1.42;;;23.20;53.00;;;;;;4879458;29;20029;-75
2022/05/21 08:36:48;;;;;;;2.25;1.20;;;23.20;53.60;;;;;;4880564;29;20036;-76
2022/05/21 08:39:17;;;;;;;7.18;1.38;;;23.20;53.00;;;;;;4880369;29;20546;-76
2022/05/21 08:42:11;;;;;;;1.92;1.20;;;23.30;52.90;;;;;;4880568;29;20031;-77
2022/05/21 08:44:50;;;;;;;6.75;1.55;;;23.30;52.90;;;;;;4880455;29;20033;-76
2022/05/21 08:47:29;;;;;;;19.30;2.28;;;23.30;53.40;;;;;;4879122;29;20056;-75
2022/05/21 08:50:17;;;;;;;9.88;1.45;;;23.20;53.30;;;;;;4879008;29;20033;-75
2022/05/21 08:52:58;;;;;;;10.07;1.73;;;23.20;52.30;;;;;;4880134;29;20037;-76
2022/05/21 08:55:30;;;;;;;9.20;1.80;;;23.10;51.80;;;;;;4879873;29;20033;-75
2022/05/21 08:58:24;;;;;;;6.20;1.60;;;23.10;52.10;;;;;;4878995;29;20060;-76
2022/05/21 09:00:50;;;;;;;6.07;1.40;;;23.10;51.50;;;;;;4878903;29;20037;-75
2022/05/21 09:03:18;;;;;;;7.85;1.80;;;23.10;51.80;;;;;;4878368;29;20394;-76
2022/05/21 09:05:53;;;;;;;8.45;1.38;;;23.10;52.00;;;;;;4880048;29;20043;-75
2022/05/21 09:08:36;;;;;;;6.80;1.70;;;23.00;52.60;;;;;;4878550;29;20141;-75
2022/05/21 09:11:06;;;;;;;6.35;1.63;;;23.00;52.10;;;;;;4878738;29;20036;-76
2022/05/21 09:13:44;;;;;;;18.83;10.52;;;23.10;52.30;;;;;;4878887;29;20086;-75
2022/05/21 09:18:57;;;;;;;12.80;6.85;;;23.00;52.30;;;;;;4879454;29;20040;-77
2022/05/21 09:21:26;;;;;;;13.80;7.15;;;23.00;52.70;;;;;;4878619;29;20068;-77
2022/05/21 09:23:55;;;;;;;15.18;8.00;;;23.00;53.10;;;;;;4878631;29;20033;-75
2022/05/21 09:26:45;;;;;;;12.47;6.17;;;22.90;53.30;;;;;;4863121;29;20067;-74
2022/05/21 09:29:19;;;;;;;20.13;5.60;;;22.90;53.10;;;;;;4879165;29;20029;-75
2022/05/21 09:31:46;;;;;;;11.10;4.20;;;22.90;52.10;;;;;;4863061;29;20029;-75
2022/05/21 09:34:32;;;;;;;11.88;4.57;;;22.90;51.70;;;;;;4875625;29;20040;-75
2022/05/21 09:36:59;;;;;;;11.48;4.50;;;22.80;52.00;;;;;;4875527;29;20509;-76
2022/05/21 09:39:39;;;;;;;10.40;4.00;;;22.80;51.70;;;;;;4876332;29;20025;-75
2022/05/21 09:45:23;;;;;;;13.45;2.53;;;22.70;51.30;;;;;;4874937;29;20546;-81
2022/05/21 09:48:04;;;;;;;4.03;2.03;;;22.70;51.50;;;;;;4877044;29;20035;-82
2022/05/21 09:50:31;;;;;;;7.60;2.60;;;22.90;51.30;;;;;;4875503;29;20033;-79
2022/05/21 09:52:57;;;;;;;6.93;2.67;;;22.90;51.20;;;;;;4877306;29;20104;-81
2022/05/21 09:55:26;;;;;;;8.45;3.03;;;23.00;51.60;;;;;;4877712;29;21321;-80
2022/05/21 09:57:54;;;;;;;5.03;2.60;;;23.00;51.40;;;;;;4875834;29;20089;-81
2022/05/21 10:00:28;;;;;;;5.32;2.65;;;23.10;51.40;;;;;;4877634;29;20390;-80
2022/05/21 10:02:56;;;;;;;8.35;2.58;;;23.10;51.50;;;;;;4876339;29;20093;-81
2022/05/21 10:05:36;;;;;;;8.20;2.72;;;23.10;51.60;;;;;;4876100;29;20037;-82
2022/05/21 10:11:31;;;;;;;6.72;2.45;;;23.10;51.70;;;;;;4877584;29;19911;-82
2022/05/21 10:14:39;;;;;;;10.07;2.30;;;23.10;51.90;;;;;;4877972;29;20041;-84
2022/05/21 10:17:17;;;;;;;8.70;2.50;;;23.20;52.30;;;;;;4840776;29;20165;-83
2022/05/21 10:19:57;;;;;;;5.82;2.40;;;23.20;52.40;;;;;;4821804;29;20138;-84
2022/05/21 10:22:49;;;;;;;12.57;3.33;;;23.20;52.30;;;;;;4857969;29;20049;-78
2022/05/21 10:25:18;;;;;;;11.18;3.20;;;23.20;52.60;;;;;;4876086;29;20064;-77
2022/05/21 10:28:08;;;;;;;19.30;4.05;;;23.20;52.60;;;;;;4875030;29;20065;-78
2022/05/21 10:31:08;;;;;;;11.73;3.80;;;23.20;52.70;;;;;;4876023;29;20045;-79
2022/05/21 10:34:05;;;;;;;8.55;3.42;;;23.10;52.70;;;;;;4876405;29;20439;-78
2022/05/21 10:36:56;;;;;;;9.77;3.30;;;23.00;52.00;;;;;;4875813;29;20110;-78
2022/05/21 10:39:30;;;;;;;13.20;3.25;;;23.00;51.50;;;;;;4875375;29;20064;-81
2022/05/21 10:42:13;;;;;;;11.05;3.05;;;23.00;51.00;;;;;;4859826;29;20037;-77
2022/05/21 10:45:14;;;;;;;7.05;2.67;;;23.00;51.90;;;;;;4876240;29;20107;-77
2022/05/21 10:47:49;;;;;;;10.65;3.33;;;23.00;50.60;;;;;;4875727;29;20033;-76
2022/05/21 10:50:31;;;;;;;10.88;3.05;;;22.90;50.70;;;;;;4874028;29;20486;-76
2022/05/21 10:53:36;;;;;;;12.77;3.25;;;23.00;50.20;;;;;;4859810;29;20056;-80
2022/05/21 10:56:09;;;;;;;12.85;3.72;;;22.90;50.20;;;;;;4874727;29;20040;-79
2022/05/21 10:59:06;;;;;;;12.27;2.90;;;22.90;49.60;;;;;;4874887;29;20057;-79
2022/05/21 11:01:52;;;;;;;7.80;2.80;;;23.00;50.40;;;;;;4855767;29;20397;-79
2022/05/21 11:04:30;;;;;;;12.52;2.42;;;23.00;50.90;;;;;;4858866;29;20405;-79
2022/05/21 11:07:11;;;;;;;10.75;2.45;;;23.00;51.20;;;;;;4844386;29;20109;-79
2022/05/21 11:09:45;;;;;;;14.25;2.75;;;23.00;51.40;;;;;;4874662;29;20037;-80
2022/05/21 11:12:25;;;;;;;10.75;2.90;;;23.10;51.10;;;;;;4859220;29;21071;-79
2022/05/21 11:15:30;;;;;;;13.30;2.80;;;23.10;51.10;;;;;;4874142;23;20060;-73
2022/05/21 11:18:24;;;;;;;10.02;2.67;;;23.20;51.30;;;;;;4851838;29;20041;-72
2022/05/21 11:21:18;;;;;;;17.20;2.92;;;23.20;51.10;;;;;;4856667;29;20061;-73
2022/05/21 11:23:51;;;;;;;7.18;2.85;;;23.20;51.50;;;;;;4855480;29;20403;-73
2022/05/21 11:26:36;;;;;;;11.63;2.80;;;23.20;51.60;;;;;;4856614;29;20036;-72
2022/05/21 11:29:30;;;;;;;10.13;2.55;;;23.20;51.60;;;;;;4857076;29;20497;-73
2022/05/21 11:37:47;;;;;;;6.65;2.30;;;23.20;51.80;;;;;;4861301;29;20553;-73
2022/05/21 11:41:24;;;;;;;9.25;2.83;;;23.20;51.90;;;;;;4873390;29;20514;-72
2022/05/21 11:46:56;;;;;;;8.48;2.42;;;23.30;51.90;;;;;;4868711;29;20405;-73
2022/05/21 11:49:37;;;;;;;13.13;2.70;;;23.30;51.90;;;;;;4858032;29;20103;-73
2022/05/21 11:52:27;;;;;;;13.05;2.88;;;23.30;52.00;;;;;;4857432;29;20041;-73
2022/05/21 11:54:53;;;;;;;7.72;2.50;;;23.30;52.20;;;;;;4857802;29;20026;-72
2022/05/21 11:57:35;;;;;;;9.75;2.65;;;23.20;52.10;;;;;;4857800;29;20478;-70
2022/05/21 12:00:09;;;;;;;9.88;2.72;;;23.30;52.40;;;;;;4856411;29;20163;-70
2022/05/21 12:03:10;;;;;;;12.73;2.80;;;23.30;52.40;;;;;;4856601;29;20040;-71
2022/05/21 12:05:38;;;;;;;14.70;2.80;;;23.20;52.30;;;;;;4856412;29;20053;-70
2022/05/21 12:08:22;;;;;;;7.55;2.88;;;23.20;52.40;;;;;;4856150;29;20037;-73
2022/05/21 12:11:02;;;;;;;11.18;3.05;;;23.20;52.50;;;;;;4862439;29;20034;-73
2022/05/21 12:13:34;;;;;;;17.15;2.83;;;23.20;52.80;;;;;;4857839;29;20041;-72
2022/05/21 12:16:00;;;;;;;14.40;3.15;;;23.30;53.10;;;;;;4857071;29;20057;-73
2022/05/21 12:18:25;;;;;;;11.88;2.30;;;23.20;52.90;;;;;;4857676;29;20030;-73
2022/05/21 12:20:55;;;;;;;10.75;3.40;;;23.20;52.70;;;;;;4856515;29;20413;-75
2022/05/21 12:23:30;;;;;;;9.43;3.25;;;22.60;49.30;;;;;;4828080;29;20037;-74
2022/05/21 12:25:59;;;;;;;9.75;3.22;;;21.70;50.40;;;;;;4870689;29;20562;-75
2022/05/21 12:28:36;;;;;;;7.78;3.35;;;21.30;50.60;;;;;;4867041;29;20029;-76
2022/05/21 12:31:06;;;;;;;11.35;3.28;;;20.90;51.60;;;;;;4862686;29;20117;-76
2022/05/21 12:33:49;;;;;;;13.57;5.43;;;20.80;51.90;;;;;;4860715;29;20048;-74
2022/05/21 12:36:42;;;;;;;8.10;3.65;;;20.70;51.60;;;;;;4861554;29;20065;-74
2022/05/21 12:39:13;;;;;;;13.18;3.33;;;20.40;53.80;;;;;;4862479;29;20037;-77
2022/05/21 12:41:43;;;;;;;18.33;8.80;;;20.80;52.70;;;;;;4862246;29;20072;-79
2022/05/21 12:44:11;;;;;;;14.52;5.10;;;20.90;51.70;;;;;;4867217;29;20037;-77
2022/05/21 12:46:40;;;;;;;19.05;11.60;;;21.10;51.90;;;;;;4859705;29;20535;-73
2022/05/21 12:49:11;;;;;;;14.73;5.80;;;21.10;52.00;;;;;;4861040;29;20021;-72
2022/05/21 12:51:42;;;;;;;14.95;6.55;;;21.20;51.30;;;;;;4874942;29;20085;-73
2022/05/21 12:54:20;;;;;;;16.00;7.22;;;20.90;51.00;;;;;;4860203;29;20559;-76
2022/05/21 12:56:46;;;;;;;11.90;4.50;;;20.90;51.20;;;;;;4867380;29;20094;-76
2022/05/21 12:59:19;;;;;;;13.20;6.40;;;20.70;51.50;;;;;;4860369;29;20037;-75
2022/05/21 13:02:08;;;;;;;10.98;4.28;;;20.90;50.30;;;;;;4858010;29;20486;-76
2022/05/21 13:04:40;;;;;;;8.57;3.33;;;20.90;50.80;;;;;;4866242;29;20109;-71
2022/05/21 13:07:20;;;;;;;8.70;3.05;;;20.90;50.00;;;;;;4861691;29;20042;-74
2022/05/21 13:09:59;;;;;;;10.70;2.83;;;20.70;50.00;;;;;;4860758;29;20065;-73
2022/05/21 13:12:33;;;;;;;6.82;2.63;;;21.00;49.20;;;;;;4867148;29;20398;-75
2022/05/21 13:14:59;;;;;;;13.13;3.42;;;21.20;49.20;;;;;;4858827;29;20052;-72
2022/05/21 13:17:35;;;;;;;10.85;3.35;;;21.40;48.90;;;;;;4865647;29;20029;-73
2022/05/21 13:20:17;;;;;;;6.97;2.53;;;21.60;48.60;;;;;;4859471;29;20486;-73
2022/05/21 13:23:03;;;;;;;9.63;2.55;;;21.50;48.40;;;;;;4859304;29;20503;-73
2022/05/21 13:25:29;;;;;;;9.25;2.83;;;21.70;48.40;;;;;;4858621;29;20033;-72
2022/05/21 13:27:57;;;;;;;7.70;2.50;;;21.80;48.60;;;;;;4858864;29;20037;-72
2022/05/21 13:30:32;;;;;;;9.07;2.38;;;21.70;48.70;;;;;;4859171;29;20509;-72
2022/05/21 13:33:00;;;;;;;7.72;2.47;;;21.70;48.40;;;;;;4859058;29;20033;-73
2022/05/21 13:35:35;;;;;;;6.17;2.10;;;21.80;48.50;;;;;;4860841;29;20033;-73
2022/05/21 13:38:06;;;;;;;5.55;1.92;;;22.00;48.30;;;;;;4860173;29;20073;-73